FW8624 Weather Reports


Display with metric or nautical units.
time (UTC)temp
F
wind
direction
speed
MPH
gust
MPH
rain 1hr
in
rain 24hr
in
rain mn
in
humidity
%
barometer
mb
20210801073013 76 0 0.0 0.0 0.00 0.23 0.00 95 1012.0
20210801071516 76 0 0.0 1.0 0.00 0.23 0.00 95 1012.2
20210801070047 76 0 0.0 2.0 0.00 0.23 0.00 95 1012.2
20210801064517 76 355 1.0 2.0 0.00 0.23 0.00 95 1012.2
20210801063011 75 355 0.0 2.0 0.00 0.23 0.00 95 1012.3
20210801061512 76 0 0.0 1.0 0.00 0.23 0.00 95 1012.3
20210801060021 76 355 0.0 3.0 0.00 0.23 0.00 95 1012.2
20210801054518 75 5 0.0 2.0 0.00 0.23 0.00 95 1012.3
20210801053019 75 5 0.0 1.0 0.00 0.23 0.00 94 1012.2
20210801051518 76 0 0.0 1.0 0.00 0.23 0.00 95 1012.5
20210801050016 75 5 1.0 3.0 0.00 0.23 0.00 95 1012.4
20210801044513 75 5 0.0 3.0 0.00 0.23 0.00 95 1012.5
20210801043015 75 0 0.0 1.0 0.00 0.23 0.00 94 1012.8
20210801041515 75 0 0.0 1.0 0.00 0.23 0.00 95 1012.8
20210801040101 74 0 0.0 1.0 0.00 0.23 0.00 95 1013.1
20210801034526 74 0 1.0 2.0 0.00 0.23 0.23 94 1013.3
20210801033020 75 0 0.0 2.0 0.00 0.23 0.23 93 1013.4
20210801031538 75 0 0.0 0.0 0.00 0.23 0.23 93 1013.5
20210801030022 74 0 0.0 2.0 0.00 0.23 0.23 93 1013.6
20210801024523 75 0 0.0 2.0 0.00 0.23 0.23 92 1013.6
20210801023106 75 0 0.0 3.0 0.00 0.23 0.23 92 1013.7
20210801021552 75 275 0.0 2.0 0.00 0.23 0.23 91 1013.4
20210801020030 75 5 0.0 3.0 0.00 0.23 0.23 90 1013.4
20210801014519 75 355 1.0 3.0 0.00 0.23 0.23 90 1013.4
20210801013054 76 53 0.0 5.0 0.00 0.23 0.23 88 1013.4
20210801011511 76 33 1.0 3.0 0.00 0.23 0.23 87 1013.4
20210801010017 76 10 4.0 11.0 0.00 0.23 0.23 86 1013.4
20210801004545 77 282 8.0 15.0 0.00 0.23 0.23 89 1013.6
20210801003012 78 285 1.0 7.0 0.00 0.23 0.23 93 1014.1
20210801001513 78 0 0.0 2.0 0.00 0.23 0.23 92 1013.6
20210801000013 78 74 0.0 3.0 0.00 0.23 0.23 92 1013.5
20210731234527 78 117 0.0 3.0 0.00 0.23 0.23 93 1013.3
20210731233019 78 42 0.0 4.0 0.00 0.23 0.23 92 1013.2
20210731231521 79 38 0.0 3.0 0.07 0.23 0.23 90 1013.2
20210731230013 79 321 1.0 3.0 0.10 0.23 0.23 89 1013.1
20210731224519 77 233 3.0 5.0 0.17 0.23 0.23 90 1013.0
20210731223026 78 296 3.0 11.0 0.22 0.22 0.22 90 1013.7
20210731221534 80 329 4.0 6.0 0.15 0.15 0.15 90 1013.8
20210731220013 80 309 2.0 9.0 0.13 0.13 0.13 88 1013.6
20210731214513 84 328 3.0 7.0 0.03 0.03 0.03 88 1013.3
20210731213033 84 263 3.0 9.0 0.00 0.00 0.00 86 1012.9
20210731211524 85 271 4.0 15.0 0.00 0.00 0.00 87 1013.0
20210731210037 85 225 7.0 11.0 0.00 0.00 0.00 87 1012.8
20210731204531 85 217 5.0 10.0 0.00 0.00 0.00 87 1013.1
20210731203104 85 279 4.0 9.0 0.00 0.00 0.00 89 1012.7
20210731201516 84 232 4.0 9.0 0.00 0.00 0.00 88 1013.1
20210731200048 84 267 4.0 9.0 0.00 0.00 0.00 87 1012.8
20210731194518 85 205 4.0 11.0 0.00 0.00 0.00 86 1012.6
20210731193010 85 179 3.0 10.0 0.00 0.00 0.00 87 1012.6
20210731191513 86 196 5.0 11.0 0.00 0.00 0.00 84 1012.5
20210731190031 86 236 5.0 10.0 0.00 0.00 0.00 83 1012.5
20210731184514 86 179 5.0 10.0 0.00 0.00 0.00 84 1012.6
20210731183104 86 189 6.0 12.0 0.00 0.00 0.00 82 1012.9
20210731181534 86 155 4.0 11.0 0.00 0.00 0.00 82 1013.1
20210731180011 86 227 4.0 9.0 0.00 0.00 0.00 83 1013.3
20210731174553 86 167 3.0 7.0 0.00 0.00 0.00 83 1013.5
20210731173014 85 238 3.0 8.0 0.00 0.00 0.00 83 1013.6
20210731171542 85 222 3.0 7.0 0.00 0.00 0.00 82 1013.7
20210731170010 85 238 3.0 8.0 0.00 0.00 0.00 82 1013.8
20210731164518 85 224 2.0 7.0 0.00 0.00 0.00 83 1014.0
20210731163011 84 214 3.0 6.0 0.00 0.00 0.00 85 1014.1
20210731161511 84 205 3.0 7.0 0.00 0.00 0.00 86 1014.3
20210731160014 84 148 1.0 5.0 0.00 0.00 0.00 85 1014.3
20210731154523 84 152 2.0 4.0 0.00 0.00 0.00 84 1014.4
20210731153013 84 94 0.0 3.0 0.00 0.00 0.00 84 1014.5
20210731151521 83 180 1.0 3.0 0.00 0.00 0.00 85 1014.5
20210731150010 83 352 1.0 4.0 0.00 0.00 0.00 87 1014.4
20210731144535 82 0 0.0 1.0 0.00 0.00 0.00 88 1014.1
20210731143036 82 327 0.0 2.0 0.00 0.00 0.00 89 1014.1
20210731141518 81 208 0.0 2.0 0.00 0.00 0.00 90 1014.1
20210731140030 82 0 0.0 2.0 0.00 0.00 0.00 90 1013.9
20210731134517 81 275 0.0 3.0 0.00 0.00 0.00 90 1013.8
20210731133018 81 288 1.0 4.0 0.00 0.00 0.00 90 1013.8
20210731131510 81 300 1.0 4.0 0.00 0.00 0.00 91 1013.9
20210731130042 81 346 1.0 5.0 0.00 0.00 0.00 91 1013.7
20210731124514 81 306 2.0 5.0 0.00 0.00 0.00 92 1013.7
20210731123045 81 265 2.0 5.0 0.00 0.00 0.00 92 1013.8
20210731121514 81 309 1.0 4.0 0.00 0.00 0.00 93 1013.8
20210731120047 80 279 2.0 4.0 0.00 0.00 0.00 93 1013.9
20210731114515 80 268 1.0 3.0 0.00 0.00 0.00 93 1014.0
20210731113013 80 355 0.0 2.0 0.00 0.00 0.00 93 1013.9
20210731111517 80 346 1.0 3.0 0.00 0.00 0.00 93 1013.9
20210731110027 80 327 0.0 5.0 0.00 0.00 0.00 92 1013.9
20210731104521 81 0 2.0 8.0 0.00 0.00 0.00 91 1013.8
20210731103014 81 244 1.0 6.0 0.00 0.00 0.00 91 1013.4
20210731101525 82 257 3.0 8.0 0.00 0.00 0.00 92 1013.3
20210731100012 82 257 3.0 8.0 0.00 0.00 0.00 92 1013.2
20210731094513 82 242 3.0 10.0 0.00 0.00 0.00 92 1013.1
20210731093010 82 267 5.0 10.0 0.00 0.00 0.00 92 1013.0
20210731091510 82 248 6.0 11.0 0.00 0.00 0.00 92 1012.9
20210731090032 82 273 5.0 10.0 0.00 0.00 0.00 92 1012.9
20210731084510 82 260 5.0 11.0 0.00 0.00 0.00 92 1013.0
20210731083036 82 253 4.0 12.0 0.00 0.00 0.00 92 1012.9
20210731081509 82 275 4.0 12.0 0.00 0.00 0.00 92 1012.7
20210731080027 82 235 5.0 13.0 0.00 0.00 0.00 91 1012.8
20210731074519 82 267 5.0 11.0 0.00 0.00 0.00 91 1012.9